sensor_id;sensor_type;location;lat;lon;timestamp;temperature;humidity
4183;DHT22;2105;52.300;9.182;2022-08-23T00:01:52;21.90;93.10
4183;DHT22;2105;52.300;9.182;2022-08-23T00:04:21;21.90;96.30
4183;DHT22;2105;52.300;9.182;2022-08-23T00:06:49;21.90;99.90
4183;DHT22;2105;52.300;9.182;2022-08-23T00:09:17;21.90;99.90
4183;DHT22;2105;52.300;9.182;2022-08-23T00:11:48;21.80;99.90
4183;DHT22;2105;52.300;9.182;2022-08-23T00:14:18;21.80;99.90
4183;DHT22;2105;52.300;9.182;2022-08-23T00:16:47;21.80;99.90
4183;DHT22;2105;52.300;9.182;2022-08-23T00:19:16;21.80;99.90
4183;DHT22;2105;52.300;9.182;2022-08-23T00:21:44;21.80;99.90
4183;DHT22;2105;52.300;9.182;2022-08-23T00:24:13;21.70;99.90
4183;DHT22;2105;52.300;9.182;2022-08-23T00:26:57;21.80;99.90
4183;DHT22;2105;52.300;9.182;2022-08-23T00:29:28;21.70;99.90
4183;DHT22;2105;52.300;9.182;2022-08-23T00:31:56;21.70;99.90
4183;DHT22;2105;52.300;9.182;2022-08-23T00:34:23;21.70;99.90
4183;DHT22;2105;52.300;9.182;2022-08-23T00:36:51;21.70;99.90
4183;DHT22;2105;52.300;9.182;2022-08-23T00:39:19;21.70;99.90
4183;DHT22;2105;52.300;9.182;2022-08-23T00:41:47;21.60;99.90
4183;DHT22;2105;52.300;9.182;2022-08-23T00:44:20;21.70;99.90
4183;DHT22;2105;52.300;9.182;2022-08-23T00:47:07;21.70;99.90
4183;DHT22;2105;52.300;9.182;2022-08-23T00:49:55;21.70;99.90
4183;DHT22;2105;52.300;9.182;2022-08-23T00:52:27;21.70;99.90
4183;DHT22;2105;52.300;9.182;2022-08-23T00:54:56;21.70;99.90
4183;DHT22;2105;52.300;9.182;2022-08-23T00:57:24;21.70;99.90
4183;DHT22;2105;52.300;9.182;2022-08-23T00:59:52;21.70;99.90
4183;DHT22;2105;52.300;9.182;2022-08-23T01:02:19;21.60;99.90
4183;DHT22;2105;52.300;9.182;2022-08-23T01:04:49;21.60;99.90
4183;DHT22;2105;52.300;9.182;2022-08-23T01:07:25;21.60;99.90
4183;DHT22;2105;52.300;9.182;2022-08-23T01:09:58;21.60;99.90
4183;DHT22;2105;52.300;9.182;2022-08-23T01:12:30;21.60;99.90
4183;DHT22;2105;52.300;9.182;2022-08-23T01:15:03;21.60;99.90
4183;DHT22;2105;52.300;9.182;2022-08-23T01:17:34;21.60;99.90
4183;DHT22;2105;52.300;9.182;2022-08-23T01:20:08;21.60;99.90
4183;DHT22;2105;52.300;9.182;2022-08-23T01:22:38;21.60;99.90
4183;DHT22;2105;52.300;9.182;2022-08-23T01:25:11;21.60;99.90
4183;DHT22;2105;52.300;9.182;2022-08-23T01:27:39;21.60;99.90
4183;DHT22;2105;52.300;9.182;2022-08-23T01:30:09;21.70;99.90
4183;DHT22;2105;52.300;9.182;2022-08-23T01:32:39;21.70;99.90
4183;DHT22;2105;52.300;9.182;2022-08-23T01:35:08;21.70;99.90
4183;DHT22;2105;52.300;9.182;2022-08-23T01:37:35;21.70;99.90
4183;DHT22;2105;52.300;9.182;2022-08-23T01:40:02;21.70;99.90
4183;DHT22;2105;52.300;9.182;2022-08-23T01:42:30;21.80;99.90
4183;DHT22;2105;52.300;9.182;2022-08-23T01:44:57;21.80;99.90
4183;DHT22;2105;52.300;9.182;2022-08-23T01:47:23;21.70;99.90
4183;DHT22;2105;52.300;9.182;2022-08-23T01:49:50;21.70;99.90
4183;DHT22;2105;52.300;9.182;2022-08-23T01:52:17;21.70;99.90
4183;DHT22;2105;52.300;9.182;2022-08-23T01:54:44;21.70;99.90
4183;DHT22;2105;52.300;9.182;2022-08-23T01:57:10;21.70;99.90
4183;DHT22;2105;52.300;9.182;2022-08-23T01:59:38;21.80;99.90
4183;DHT22;2105;52.300;9.182;2022-08-23T02:02:05;21.80;99.90
4183;DHT22;2105;52.300;9.182;2022-08-23T02:04:32;21.80;99.90
4183;DHT22;2105;52.300;9.182;2022-08-23T02:06:58;21.70;99.90
4183;DHT22;2105;52.300;9.182;2022-08-23T02:09:25;21.80;99.90
4183;DHT22;2105;52.300;9.182;2022-08-23T02:11:52;21.80;99.90
4183;DHT22;2105;52.300;9.182;2022-08-23T02:14:20;21.80;99.90
4183;DHT22;2105;52.300;9.182;2022-08-23T02:16:50;21.80;99.90
4183;DHT22;2105;52.300;9.182;2022-08-23T02:19:18;21.80;99.90
4183;DHT22;2105;52.300;9.182;2022-08-23T02:21:45;21.80;99.90
4183;DHT22;2105;52.300;9.182;2022-08-23T02:24:14;21.80;99.90
4183;DHT22;2105;52.300;9.182;2022-08-23T02:26:44;21.80;99.90
4183;DHT22;2105;52.300;9.182;2022-08-23T02:29:12;21.80;99.90
4183;DHT22;2105;52.300;9.182;2022-08-23T02:31:40;21.80;99.90
4183;DHT22;2105;52.300;9.182;2022-08-23T02:34:08;21.80;99.90
4183;DHT22;2105;52.300;9.182;2022-08-23T02:36:36;21.80;99.90
4183;DHT22;2105;52.300;9.182;2022-08-23T02:39:04;21.80;99.90
4183;DHT22;2105;52.300;9.182;2022-08-23T02:41:31;21.80;99.90
4183;DHT22;2105;52.300;9.182;2022-08-23T02:43:58;21.80;99.90
4183;DHT22;2105;52.300;9.182;2022-08-23T02:46:25;21.90;99.90
4183;DHT22;2105;52.300;9.182;2022-08-23T02:48:51;21.80;99.90
4183;DHT22;2105;52.300;9.182;2022-08-23T02:51:20;21.70;99.90
4183;DHT22;2105;52.300;9.182;2022-08-23T02:53:46;21.70;99.90
4183;DHT22;2105;52.300;9.182;2022-08-23T02:56:13;21.50;99.90
4183;DHT22;2105;52.300;9.182;2022-08-23T02:58:40;21.40;99.90
4183;DHT22;2105;52.300;9.182;2022-08-23T03:01:14;21.30;99.90
4183;DHT22;2105;52.300;9.182;2022-08-23T03:03:41;21.30;99.90
4183;DHT22;2105;52.300;9.182;2022-08-23T03:06:08;21.20;99.90
4183;DHT22;2105;52.300;9.182;2022-08-23T03:08:36;21.20;99.90
4183;DHT22;2105;52.300;9.182;2022-08-23T03:11:10;21.20;99.90
4183;DHT22;2105;52.300;9.182;2022-08-23T03:13:37;21.20;99.90
4183;DHT22;2105;52.300;9.182;2022-08-23T03:16:05;21.20;99.90
4183;DHT22;2105;52.300;9.182;2022-08-23T03:18:32;21.10;99.90
4183;DHT22;2105;52.300;9.182;2022-08-23T03:20:59;21.00;99.90
4183;DHT22;2105;52.300;9.182;2022-08-23T03:23:26;21.00;99.90
4183;DHT22;2105;52.300;9.182;2022-08-23T03:25:55;21.00;99.90
4183;DHT22;2105;52.300;9.182;2022-08-23T03:28:22;21.00;99.90
4183;DHT22;2105;52.300;9.182;2022-08-23T03:30:48;21.00;99.90
4183;DHT22;2105;52.300;9.182;2022-08-23T03:33:16;20.90;99.90
4183;DHT22;2105;52.300;9.182;2022-08-23T03:35:43;20.90;99.90
4183;DHT22;2105;52.300;9.182;2022-08-23T03:38:10;20.90;99.90
4183;DHT22;2105;52.300;9.182;2022-08-23T03:40:37;20.90;99.90
4183;DHT22;2105;52.300;9.182;2022-08-23T03:43:05;20.90;99.90
4183;DHT22;2105;52.300;9.182;2022-08-23T03:45:32;20.90;99.90
4183;DHT22;2105;52.300;9.182;2022-08-23T03:47:59;20.80;99.90
4183;DHT22;2105;52.300;9.182;2022-08-23T03:50:26;20.80;99.90
4183;DHT22;2105;52.300;9.182;2022-08-23T03:52:52;20.80;99.90
4183;DHT22;2105;52.300;9.182;2022-08-23T03:55:19;20.80;99.90
4183;DHT22;2105;52.300;9.182;2022-08-23T03:57:46;20.80;99.90
4183;DHT22;2105;52.300;9.182;2022-08-23T04:00:15;20.70;99.90
4183;DHT22;2105;52.300;9.182;2022-08-23T04:02:42;20.70;99.90
4183;DHT22;2105;52.300;9.182;2022-08-23T04:05:09;20.60;1.00
4183;DHT22;2105;52.300;9.182;2022-08-23T04:07:37;20.60;1.00
4183;DHT22;2105;52.300;9.182;2022-08-23T04:10:06;20.60;1.00
4183;DHT22;2105;52.300;9.182;2022-08-23T04:12:34;20.50;1.00
4183;DHT22;2105;52.300;9.182;2022-08-23T04:15:00;20.50;1.00
4183;DHT22;2105;52.300;9.182;2022-08-23T04:17:29;20.50;1.00
4183;DHT22;2105;52.300;9.182;2022-08-23T04:19:55;20.60;1.00
4183;DHT22;2105;52.300;9.182;2022-08-23T04:22:22;20.60;1.00
4183;DHT22;2105;52.300;9.182;2022-08-23T04:24:49;20.60;1.00
4183;DHT22;2105;52.300;9.182;2022-08-23T04:27:16;20.60;1.00
4183;DHT22;2105;52.300;9.182;2022-08-23T04:29:43;20.60;1.00
4183;DHT22;2105;52.300;9.182;2022-08-23T04:32:10;20.60;1.00
4183;DHT22;2105;52.300;9.182;2022-08-23T04:34:38;20.50;1.00
4183;DHT22;2105;52.300;9.182;2022-08-23T04:37:07;20.60;1.00
4183;DHT22;2105;52.300;9.182;2022-08-23T04:39:33;20.70;1.00
4183;DHT22;2105;52.300;9.182;2022-08-23T04:42:21;20.80;99.90
4183;DHT22;2105;52.300;9.182;2022-08-23T04:44:47;20.90;99.90
4183;DHT22;2105;52.300;9.182;2022-08-23T04:47:14;21.00;99.90
4183;DHT22;2105;52.300;9.182;2022-08-23T04:49:42;21.10;99.90
4183;DHT22;2105;52.300;9.182;2022-08-23T04:52:11;21.10;99.90
4183;DHT22;2105;52.300;9.182;2022-08-23T04:54:39;21.20;99.90
4183;DHT22;2105;52.300;9.182;2022-08-23T04:57:06;21.10;99.90
4183;DHT22;2105;52.300;9.182;2022-08-23T04:59:32;21.20;99.90
4183;DHT22;2105;52.300;9.182;2022-08-23T05:01:59;21.10;99.90
4183;DHT22;2105;52.300;9.182;2022-08-23T05:04:26;21.20;99.90
4183;DHT22;2105;52.300;9.182;2022-08-23T05:06:55;21.10;99.90
4183;DHT22;2105;52.300;9.182;2022-08-23T05:09:21;21.10;99.90
4183;DHT22;2105;52.300;9.182;2022-08-23T05:11:49;21.10;99.90
4183;DHT22;2105;52.300;9.182;2022-08-23T05:14:16;21.20;99.90
4183;DHT22;2105;52.300;9.182;2022-08-23T05:16:43;21.10;99.90
4183;DHT22;2105;52.300;9.182;2022-08-23T05:19:09;21.20;99.90
4183;DHT22;2105;52.300;9.182;2022-08-23T05:21:36;21.20;99.90
4183;DHT22;2105;52.300;9.182;2022-08-23T05:24:04;21.10;99.90
4183;DHT22;2105;52.300;9.182;2022-08-23T05:26:31;21.10;99.90
4183;DHT22;2105;52.300;9.182;2022-08-23T05:28:58;21.00;99.90
4183;DHT22;2105;52.300;9.182;2022-08-23T05:31:26;21.00;99.90
4183;DHT22;2105;52.300;9.182;2022-08-23T05:33:54;21.00;99.90
4183;DHT22;2105;52.300;9.182;2022-08-23T05:36:21;20.90;99.90
4183;DHT22;2105;52.300;9.182;2022-08-23T05:38:48;20.90;99.90
4183;DHT22;2105;52.300;9.182;2022-08-23T05:41:18;21.00;99.90
4183;DHT22;2105;52.300;9.182;2022-08-23T05:43:45;20.90;99.90
4183;DHT22;2105;52.300;9.182;2022-08-23T05:46:15;20.90;99.90
4183;DHT22;2105;52.300;9.182;2022-08-23T05:48:44;21.00;99.90
4183;DHT22;2105;52.300;9.182;2022-08-23T05:51:14;20.90;1.00
4183;DHT22;2105;52.300;9.182;2022-08-23T05:53:42;20.90;1.00
4183;DHT22;2105;52.300;9.182;2022-08-23T05:56:15;20.80;1.00
4183;DHT22;2105;52.300;9.182;2022-08-23T05:58:44;20.70;1.00
4183;DHT22;2105;52.300;9.182;2022-08-23T06:01:12;20.70;1.00
4183;DHT22;2105;52.300;9.182;2022-08-23T06:03:39;20.60;1.00
4183;DHT22;2105;52.300;9.182;2022-08-23T06:06:07;20.70;1.00
4183;DHT22;2105;52.300;9.182;2022-08-23T06:08:35;20.70;1.00
4183;DHT22;2105;52.300;9.182;2022-08-23T06:11:05;20.60;1.00
4183;DHT22;2105;52.300;9.182;2022-08-23T06:13:32;20.60;1.00
4183;DHT22;2105;52.300;9.182;2022-08-23T06:16:04;20.60;1.00
4183;DHT22;2105;52.300;9.182;2022-08-23T06:18:31;20.60;1.00
4183;DHT22;2105;52.300;9.182;2022-08-23T06:20:59;20.60;1.00
4183;DHT22;2105;52.300;9.182;2022-08-23T06:23:27;20.60;1.00
4183;DHT22;2105;52.300;9.182;2022-08-23T06:25:55;20.70;1.00
4183;DHT22;2105;52.300;9.182;2022-08-23T06:28:21;20.80;1.00
4183;DHT22;2105;52.300;9.182;2022-08-23T06:30:48;21.00;1.00
4183;DHT22;2105;52.300;9.182;2022-08-23T06:33:16;21.20;99.90
4183;DHT22;2105;52.300;9.182;2022-08-23T06:35:43;21.50;99.90
4183;DHT22;2105;52.300;9.182;2022-08-23T06:38:10;21.70;99.90
4183;DHT22;2105;52.300;9.182;2022-08-23T06:40:37;21.80;99.90
4183;DHT22;2105;52.300;9.182;2022-08-23T06:43:04;22.00;99.90
4183;DHT22;2105;52.300;9.182;2022-08-23T06:45:30;22.10;99.90
4183;DHT22;2105;52.300;9.182;2022-08-23T06:47:58;22.20;99.90
4183;DHT22;2105;52.300;9.182;2022-08-23T06:50:26;22.40;99.90
4183;DHT22;2105;52.300;9.182;2022-08-23T06:52:53;22.60;99.90
4183;DHT22;2105;52.300;9.182;2022-08-23T06:55:19;23.10;99.90
4183;DHT22;2105;52.300;9.182;2022-08-23T06:57:46;23.60;99.90
4183;DHT22;2105;52.300;9.182;2022-08-23T07:00:13;24.10;91.80
4183;DHT22;2105;52.300;9.182;2022-08-23T07:02:40;23.70;80.20
4183;DHT22;2105;52.300;9.182;2022-08-23T07:05:07;23.50;90.10
4183;DHT22;2105;52.300;9.182;2022-08-23T07:07:36;23.20;86.80
4183;DHT22;2105;52.300;9.182;2022-08-23T07:10:04;23.10;94.90
4183;DHT22;2105;52.300;9.182;2022-08-23T07:12:30;23.50;92.20
4183;DHT22;2105;52.300;9.182;2022-08-23T07:14:57;24.50;33.10
4183;DHT22;2105;52.300;9.182;2022-08-23T07:17:24;25.30;1.00
4183;DHT22;2105;52.300;9.182;2022-08-23T07:19:51;25.00;1.00
4183;DHT22;2105;52.300;9.182;2022-08-23T07:22:17;24.40;1.00
4183;DHT22;2105;52.300;9.182;2022-08-23T07:24:46;23.90;1.00
4183;DHT22;2105;52.300;9.182;2022-08-23T07:27:13;23.40;11.10
4183;DHT22;2105;52.300;9.182;2022-08-23T07:29:40;23.40;27.50
4183;DHT22;2105;52.300;9.182;2022-08-23T07:32:08;24.30;12.10
4183;DHT22;2105;52.300;9.182;2022-08-23T07:34:35;24.80;1.00
4183;DHT22;2105;52.300;9.182;2022-08-23T07:37:02;25.50;1.00
4183;DHT22;2105;52.300;9.182;2022-08-23T07:39:30;26.30;1.00
4183;DHT22;2105;52.300;9.182;2022-08-23T07:41:59;26.90;1.00
4183;DHT22;2105;52.300;9.182;2022-08-23T07:44:25;27.60;1.00
4183;DHT22;2105;52.300;9.182;2022-08-23T07:46:52;28.70;1.00
4183;DHT22;2105;52.300;9.182;2022-08-23T07:49:19;28.80;1.00
4183;DHT22;2105;52.300;9.182;2022-08-23T07:51:48;29.20;1.00
4183;DHT22;2105;52.300;9.182;2022-08-23T07:54:16;28.80;1.00
4183;DHT22;2105;52.300;9.182;2022-08-23T07:56:44;27.80;1.00
4183;DHT22;2105;52.300;9.182;2022-08-23T07:59:12;27.60;1.00
4183;DHT22;2105;52.300;9.182;2022-08-23T08:01:41;27.00;1.00
4183;DHT22;2105;52.300;9.182;2022-08-23T08:04:08;26.10;1.00
4183;DHT22;2105;52.300;9.182;2022-08-23T08:06:39;26.00;1.00
4183;DHT22;2105;52.300;9.182;2022-08-23T08:09:07;25.80;1.00
4183;DHT22;2105;52.300;9.182;2022-08-23T08:11:34;25.10;1.00
4183;DHT22;2105;52.300;9.182;2022-08-23T08:14:03;24.80;1.00
4183;DHT22;2105;52.300;9.182;2022-08-23T08:16:33;25.10;1.00
4183;DHT22;2105;52.300;9.182;2022-08-23T08:19:01;25.30;1.00
4183;DHT22;2105;52.300;9.182;2022-08-23T08:21:28;25.50;1.00
4183;DHT22;2105;52.300;9.182;2022-08-23T08:23:56;25.80;1.00
4183;DHT22;2105;52.300;9.182;2022-08-23T08:26:24;26.10;1.00
4183;DHT22;2105;52.300;9.182;2022-08-23T08:28:51;26.10;1.00
4183;DHT22;2105;52.300;9.182;2022-08-23T08:31:20;26.10;1.00
4183;DHT22;2105;52.300;9.182;2022-08-23T08:33:48;26.10;1.00
4183;DHT22;2105;52.300;9.182;2022-08-23T08:36:29;26.00;1.00
4183;DHT22;2105;52.300;9.182;2022-08-23T08:38:57;25.90;1.00
4183;DHT22;2105;52.300;9.182;2022-08-23T08:41:46;25.90;1.00
4183;DHT22;2105;52.300;9.182;2022-08-23T08:44:33;26.10;1.00
4183;DHT22;2105;52.300;9.182;2022-08-23T08:47:06;26.30;1.00
4183;DHT22;2105;52.300;9.182;2022-08-23T08:49:39;26.40;1.00
4183;DHT22;2105;52.300;9.182;2022-08-23T08:52:14;26.50;1.00
4183;DHT22;2105;52.300;9.182;2022-08-23T08:54:44;26.60;1.00
4183;DHT22;2105;52.300;9.182;2022-08-23T08:57:15;26.50;1.00
4183;DHT22;2105;52.300;9.182;2022-08-23T08:59:51;26.60;1.00
4183;DHT22;2105;52.300;9.182;2022-08-23T09:02:21;26.60;1.00
4183;DHT22;2105;52.300;9.182;2022-08-23T09:04:53;26.80;1.00
4183;DHT22;2105;52.300;9.182;2022-08-23T09:07:24;26.70;1.00
4183;DHT22;2105;52.300;9.182;2022-08-23T09:10:06;26.30;1.00
4183;DHT22;2105;52.300;9.182;2022-08-23T09:12:42;26.50;1.00
4183;DHT22;2105;52.300;9.182;2022-08-23T09:15:22;26.80;1.00
4183;DHT22;2105;52.300;9.182;2022-08-23T09:17:53;27.00;1.00
4183;DHT22;2105;52.300;9.182;2022-08-23T09:20:24;27.20;1.00
4183;DHT22;2105;52.300;9.182;2022-08-23T09:22:59;27.20;1.00
4183;DHT22;2105;52.300;9.182;2022-08-23T09:25:29;27.10;1.00
4183;DHT22;2105;52.300;9.182;2022-08-23T09:27:56;27.30;1.00
4183;DHT22;2105;52.300;9.182;2022-08-23T09:30:44;27.30;1.00
4183;DHT22;2105;52.300;9.182;2022-08-23T09:33:14;27.30;1.00
4183;DHT22;2105;52.300;9.182;2022-08-23T09:35:42;27.10;1.00
4183;DHT22;2105;52.300;9.182;2022-08-23T09:38:16;27.10;1.00
4183;DHT22;2105;52.300;9.182;2022-08-23T09:40:46;27.20;1.00
4183;DHT22;2105;52.300;9.182;2022-08-23T09:43:15;27.20;1.00
4183;DHT22;2105;52.300;9.182;2022-08-23T09:45:54;26.90;1.00
4183;DHT22;2105;52.300;9.182;2022-08-23T09:48:33;26.90;1.00
4183;DHT22;2105;52.300;9.182;2022-08-23T09:51:07;26.90;1.00
4183;DHT22;2105;52.300;9.182;2022-08-23T09:53:36;27.10;1.00
4183;DHT22;2105;52.300;9.182;2022-08-23T09:56:12;27.70;1.00
4183;DHT22;2105;52.300;9.182;2022-08-23T09:58:42;28.30;1.00
4183;DHT22;2105;52.300;9.182;2022-08-23T10:01:19;28.50;1.00
4183;DHT22;2105;52.300;9.182;2022-08-23T10:04:06;28.50;1.00
4183;DHT22;2105;52.300;9.182;2022-08-23T10:06:35;28.30;1.00
4183;DHT22;2105;52.300;9.182;2022-08-23T10:09:04;28.50;1.00
4183;DHT22;2105;52.300;9.182;2022-08-23T10:11:35;28.70;1.00
4183;DHT22;2105;52.300;9.182;2022-08-23T10:14:02;28.90;1.00
4183;DHT22;2105;52.300;9.182;2022-08-23T10:16:36;28.90;1.00
4183;DHT22;2105;52.300;9.182;2022-08-23T10:19:18;28.70;1.00
4183;DHT22;2105;52.300;9.182;2022-08-23T10:21:53;28.90;1.00
4183;DHT22;2105;52.300;9.182;2022-08-23T10:24:28;29.00;1.00
4183;DHT22;2105;52.300;9.182;2022-08-23T10:27:11;29.10;1.00
4183;DHT22;2105;52.300;9.182;2022-08-23T10:30:04;29.20;1.00
4183;DHT22;2105;52.300;9.182;2022-08-23T10:32:43;29.10;1.00
4183;DHT22;2105;52.300;9.182;2022-08-23T10:35:30;29.20;1.00
4183;DHT22;2105;52.300;9.182;2022-08-23T10:38:20;29.20;1.00
4183;DHT22;2105;52.300;9.182;2022-08-23T10:40:54;29.30;1.00
4183;DHT22;2105;52.300;9.182;2022-08-23T10:43:32;29.50;1.00
4183;DHT22;2105;52.300;9.182;2022-08-23T10:46:06;29.50;1.00
4183;DHT22;2105;52.300;9.182;2022-08-23T10:48:35;29.30;1.00
4183;DHT22;2105;52.300;9.182;2022-08-23T10:51:05;29.40;1.00
4183;DHT22;2105;52.300;9.182;2022-08-23T10:53:37;29.60;1.00
4183;DHT22;2105;52.300;9.182;2022-08-23T10:56:11;29.80;1.00
4183;DHT22;2105;52.300;9.182;2022-08-23T10:58:45;29.60;1.00
4183;DHT22;2105;52.300;9.182;2022-08-23T11:01:15;29.20;1.00
4183;DHT22;2105;52.300;9.182;2022-08-23T11:03:48;29.40;1.00
4183;DHT22;2105;52.300;9.182;2022-08-23T11:12:22;29.30;1.00
4183;DHT22;2105;52.300;9.182;2022-08-23T11:15:13;29.70;1.00
4183;DHT22;2105;52.300;9.182;2022-08-23T11:17:57;29.70;1.00
4183;DHT22;2105;52.300;9.182;2022-08-23T11:20:59;29.60;1.00
4183;DHT22;2105;52.300;9.182;2022-08-23T11:23:52;29.90;1.00
4183;DHT22;2105;52.300;9.182;2022-08-23T11:29:30;30.50;1.00
4183;DHT22;2105;52.300;9.182;2022-08-23T11:32:02;30.50;1.00
4183;DHT22;2105;52.300;9.182;2022-08-23T11:34:38;30.60;1.00
4183;DHT22;2105;52.300;9.182;2022-08-23T11:37:27;30.50;1.00
4183;DHT22;2105;52.300;9.182;2022-08-23T11:40:04;30.50;1.00
4183;DHT22;2105;52.300;9.182;2022-08-23T11:42:46;30.50;1.00
4183;DHT22;2105;52.300;9.182;2022-08-23T11:45:26;30.80;1.00
4183;DHT22;2105;52.300;9.182;2022-08-23T11:48:10;31.00;1.00
4183;DHT22;2105;52.300;9.182;2022-08-23T11:53:44;31.00;1.00
4183;DHT22;2105;52.300;9.182;2022-08-23T11:59:42;30.80;1.00
4183;DHT22;2105;52.300;9.182;2022-08-23T12:02:31;30.90;1.00
4183;DHT22;2105;52.300;9.182;2022-08-23T12:05:00;31.00;1.00
4183;DHT22;2105;52.300;9.182;2022-08-23T12:07:45;31.30;1.00
4183;DHT22;2105;52.300;9.182;2022-08-23T12:10:15;31.20;1.00
4183;DHT22;2105;52.300;9.182;2022-08-23T12:16:26;31.60;1.00
4183;DHT22;2105;52.300;9.182;2022-08-23T12:18:58;31.50;1.00
4183;DHT22;2105;52.300;9.182;2022-08-23T12:21:28;31.50;1.00
4183;DHT22;2105;52.300;9.182;2022-08-23T12:24:00;31.60;1.00
4183;DHT22;2105;52.300;9.182;2022-08-23T12:26:45;31.80;1.00
4183;DHT22;2105;52.300;9.182;2022-08-23T12:29:21;31.40;1.00
4183;DHT22;2105;52.300;9.182;2022-08-23T12:31:56;31.20;1.00
4183;DHT22;2105;52.300;9.182;2022-08-23T12:34:31;31.50;1.00
4183;DHT22;2105;52.300;9.182;2022-08-23T12:37:03;31.50;1.00
4183;DHT22;2105;52.300;9.182;2022-08-23T12:39:37;31.60;1.00
4183;DHT22;2105;52.300;9.182;2022-08-23T12:42:09;31.90;1.00
4183;DHT22;2105;52.300;9.182;2022-08-23T12:44:40;32.10;1.00
4183;DHT22;2105;52.300;9.182;2022-08-23T12:47:10;32.40;1.00
4183;DHT22;2105;52.300;9.182;2022-08-23T12:49:39;32.30;1.00
4183;DHT22;2105;52.300;9.182;2022-08-23T12:52:08;31.50;1.00
4183;DHT22;2105;52.300;9.182;2022-08-23T12:54:37;31.50;1.00
4183;DHT22;2105;52.300;9.182;2022-08-23T12:57:07;31.60;1.00
4183;DHT22;2105;52.300;9.182;2022-08-23T12:59:39;31.90;1.00
4183;DHT22;2105;52.300;9.182;2022-08-23T13:02:10;31.80;1.00
4183;DHT22;2105;52.300;9.182;2022-08-23T13:04:40;32.10;1.00
4183;DHT22;2105;52.300;9.182;2022-08-23T13:07:09;32.30;1.00
4183;DHT22;2105;52.300;9.182;2022-08-23T13:09:38;32.40;1.00
4183;DHT22;2105;52.300;9.182;2022-08-23T13:12:07;32.20;1.00
4183;DHT22;2105;52.300;9.182;2022-08-23T13:14:36;32.00;1.00
4183;DHT22;2105;52.300;9.182;2022-08-23T13:17:19;31.90;1.00
4183;DHT22;2105;52.300;9.182;2022-08-23T13:19:50;31.70;1.00
4183;DHT22;2105;52.300;9.182;2022-08-23T13:22:23;31.20;1.00
4183;DHT22;2105;52.300;9.182;2022-08-23T13:25:03;31.30;1.00
4183;DHT22;2105;52.300;9.182;2022-08-23T13:27:32;31.40;1.00
4183;DHT22;2105;52.300;9.182;2022-08-23T13:30:00;31.70;1.00
4183;DHT22;2105;52.300;9.182;2022-08-23T13:32:34;31.60;1.00
4183;DHT22;2105;52.300;9.182;2022-08-23T13:35:24;31.50;1.00
4183;DHT22;2105;52.300;9.182;2022-08-23T13:37:53;31.70;1.00
4183;DHT22;2105;52.300;9.182;2022-08-23T13:40:23;32.10;99.90
4183;DHT22;2105;52.300;9.182;2022-08-23T13:42:55;32.20;99.90
4183;DHT22;2105;52.300;9.182;2022-08-23T13:45:27;32.10;99.90
4183;DHT22;2105;52.300;9.182;2022-08-23T13:47:57;31.80;99.90
4183;DHT22;2105;52.300;9.182;2022-08-23T13:50:29;31.40;1.00
4183;DHT22;2105;52.300;9.182;2022-08-23T13:52:56;31.60;1.00
4183;DHT22;2105;52.300;9.182;2022-08-23T13:55:23;32.00;1.00
4183;DHT22;2105;52.300;9.182;2022-08-23T13:57:50;32.50;99.90
4183;DHT22;2105;52.300;9.182;2022-08-23T14:00:18;32.60;99.90
4183;DHT22;2105;52.300;9.182;2022-08-23T14:02:45;32.30;99.90
4183;DHT22;2105;52.300;9.182;2022-08-23T14:05:15;31.70;99.90
4183;DHT22;2105;52.300;9.182;2022-08-23T14:07:43;31.80;99.90
4183;DHT22;2105;52.300;9.182;2022-08-23T14:10:12;32.10;99.90
4183;DHT22;2105;52.300;9.182;2022-08-23T14:12:42;32.20;99.90
4183;DHT22;2105;52.300;9.182;2022-08-23T14:15:11;32.30;99.90
4183;DHT22;2105;52.300;9.182;2022-08-23T14:17:40;32.30;99.90
4183;DHT22;2105;52.300;9.182;2022-08-23T14:20:08;32.30;99.90
4183;DHT22;2105;52.300;9.182;2022-08-23T14:22:36;32.20;99.90
4183;DHT22;2105;52.300;9.182;2022-08-23T14:25:05;31.50;1.00
4183;DHT22;2105;52.300;9.182;2022-08-23T14:27:32;30.80;1.00
4183;DHT22;2105;52.300;9.182;2022-08-23T14:29:59;30.50;1.00
4183;DHT22;2105;52.300;9.182;2022-08-23T14:32:26;30.40;1.00
4183;DHT22;2105;52.300;9.182;2022-08-23T14:34:52;30.30;1.00
4183;DHT22;2105;52.300;9.182;2022-08-23T14:37:19;30.40;1.00
4183;DHT22;2105;52.300;9.182;2022-08-23T14:39:46;30.20;1.00
4183;DHT22;2105;52.300;9.182;2022-08-23T14:42:17;30.50;1.00
4183;DHT22;2105;52.300;9.182;2022-08-23T14:44:44;30.80;1.00
4183;DHT22;2105;52.300;9.182;2022-08-23T14:47:11;31.00;1.00
4183;DHT22;2105;52.300;9.182;2022-08-23T14:49:37;31.40;1.00
4183;DHT22;2105;52.300;9.182;2022-08-23T14:52:04;31.50;1.00
4183;DHT22;2105;52.300;9.182;2022-08-23T14:54:31;31.70;1.00
4183;DHT22;2105;52.300;9.182;2022-08-23T14:56:58;31.50;1.00
4183;DHT22;2105;52.300;9.182;2022-08-23T14:59:26;31.70;1.00
4183;DHT22;2105;52.300;9.182;2022-08-23T15:01:53;31.90;99.90
4183;DHT22;2105;52.300;9.182;2022-08-23T15:04:22;31.50;99.90
4183;DHT22;2105;52.300;9.182;2022-08-23T15:06:49;31.50;99.90
4183;DHT22;2105;52.300;9.182;2022-08-23T15:09:16;31.70;99.90
4183;DHT22;2105;52.300;9.182;2022-08-23T15:11:43;31.70;99.90
4183;DHT22;2105;52.300;9.182;2022-08-23T15:14:10;31.80;99.90
4183;DHT22;2105;52.300;9.182;2022-08-23T15:16:39;31.80;99.90
4183;DHT22;2105;52.300;9.182;2022-08-23T15:19:05;31.60;99.90
4183;DHT22;2105;52.300;9.182;2022-08-23T15:21:32;31.70;99.90
4183;DHT22;2105;52.300;9.182;2022-08-23T15:23:59;31.60;99.90
4183;DHT22;2105;52.300;9.182;2022-08-23T15:26:28;31.60;99.90
4183;DHT22;2105;52.300;9.182;2022-08-23T15:28:55;31.60;99.90
4183;DHT22;2105;52.300;9.182;2022-08-23T15:31:22;31.50;99.90
4183;DHT22;2105;52.300;9.182;2022-08-23T15:33:50;31.50;1.00
4183;DHT22;2105;52.300;9.182;2022-08-23T15:36:17;31.40;1.00
4183;DHT22;2105;52.300;9.182;2022-08-23T15:38:46;31.30;1.00
4183;DHT22;2105;52.300;9.182;2022-08-23T15:41:14;31.20;1.00
4183;DHT22;2105;52.300;9.182;2022-08-23T15:43:42;31.00;1.00
4183;DHT22;2105;52.300;9.182;2022-08-23T15:46:11;30.80;1.00
4183;DHT22;2105;52.300;9.182;2022-08-23T15:48:42;30.80;1.00
4183;DHT22;2105;52.300;9.182;2022-08-23T15:51:11;30.90;1.00
4183;DHT22;2105;52.300;9.182;2022-08-23T15:53:38;30.90;1.00
4183;DHT22;2105;52.300;9.182;2022-08-23T15:56:09;31.00;1.00
4183;DHT22;2105;52.300;9.182;2022-08-23T15:58:37;30.70;1.00
4183;DHT22;2105;52.300;9.182;2022-08-23T16:01:05;30.50;1.00
4183;DHT22;2105;52.300;9.182;2022-08-23T16:03:32;30.30;1.00
4183;DHT22;2105;52.300;9.182;2022-08-23T16:06:01;30.20;1.00
4183;DHT22;2105;52.300;9.182;2022-08-23T16:08:31;30.20;1.00
4183;DHT22;2105;52.300;9.182;2022-08-23T16:10:59;30.40;1.00
4183;DHT22;2105;52.300;9.182;2022-08-23T16:13:29;30.40;1.00
4183;DHT22;2105;52.300;9.182;2022-08-23T16:15:56;30.40;1.00
4183;DHT22;2105;52.300;9.182;2022-08-23T16:18:23;30.40;1.00
4183;DHT22;2105;52.300;9.182;2022-08-23T16:20:50;30.20;1.00
4183;DHT22;2105;52.300;9.182;2022-08-23T16:23:16;29.80;1.00
4183;DHT22;2105;52.300;9.182;2022-08-23T16:25:44;29.50;1.00
4183;DHT22;2105;52.300;9.182;2022-08-23T16:28:11;29.40;1.00
4183;DHT22;2105;52.300;9.182;2022-08-23T16:30:37;29.20;1.00
4183;DHT22;2105;52.300;9.182;2022-08-23T16:33:04;29.10;1.00
4183;DHT22;2105;52.300;9.182;2022-08-23T16:35:31;29.00;1.00
4183;DHT22;2105;52.300;9.182;2022-08-23T16:37:57;29.00;1.00
4183;DHT22;2105;52.300;9.182;2022-08-23T16:40:24;28.80;1.00
4183;DHT22;2105;52.300;9.182;2022-08-23T16:42:52;28.60;1.00
4183;DHT22;2105;52.300;9.182;2022-08-23T16:45:20;28.60;1.00
4183;DHT22;2105;52.300;9.182;2022-08-23T16:47:47;28.50;1.00